sensor_id;sensor_type;location;lat;lon;timestamp;temperature;humidity
72320;SHT30;60269;52.502;16.732;2024-02-23T00:03:23;8.94;90.15
72320;SHT30;60269;52.502;16.732;2024-02-23T00:06:54;8.99;90.02
72320;SHT30;60269;52.502;16.732;2024-02-23T00:10:26;9.16;89.29
72320;SHT30;60269;52.502;16.732;2024-02-23T00:13:59;9.13;89.58
72320;SHT30;60269;52.502;16.732;2024-02-23T00:17:31;9.17;89.34
72320;SHT30;60269;52.502;16.732;2024-02-23T00:21:03;9.16;89.73
72320;SHT30;60269;52.502;16.732;2024-02-23T00:24:36;9.08;90.15
72320;SHT30;60269;52.502;16.732;2024-02-23T00:28:08;9.11;90.03
72320;SHT30;60269;52.502;16.732;2024-02-23T00:31:40;9.03;90.40
72320;SHT30;60269;52.502;16.732;2024-02-23T00:35:17;9.00;90.82
72320;SHT30;60269;52.502;16.732;2024-02-23T00:38:49;9.10;90.34
72320;SHT30;60269;52.502;16.732;2024-02-23T00:42:21;9.10;90.52
72320;SHT30;60269;52.502;16.732;2024-02-23T00:45:53;9.16;90.49
72320;SHT30;60269;52.502;16.732;2024-02-23T00:49:25;9.20;90.33
72320;SHT30;60269;52.502;16.732;2024-02-23T00:52:57;9.18;90.68
72320;SHT30;60269;52.502;16.732;2024-02-23T00:56:29;9.23;90.50
72320;SHT30;60269;52.502;16.732;2024-02-23T01:00:16;9.24;90.70
72320;SHT30;60269;52.502;16.732;2024-02-23T01:03:48;9.27;90.77
72320;SHT30;60269;52.502;16.732;2024-02-23T01:07:20;9.28;90.97
72320;SHT30;60269;52.502;16.732;2024-02-23T01:10:52;9.35;90.66
72320;SHT30;60269;52.502;16.732;2024-02-23T01:14:24;9.38;90.93
72320;SHT30;60269;52.502;16.732;2024-02-23T01:17:56;9.42;90.79
72320;SHT30;60269;52.502;16.732;2024-02-23T01:21:29;9.38;91.13
72320;SHT30;60269;52.502;16.732;2024-02-23T01:25:00;9.42;91.18
72320;SHT30;60269;52.502;16.732;2024-02-23T01:28:32;9.51;90.71
72320;SHT30;60269;52.502;16.732;2024-02-23T01:32:05;9.52;90.74
72320;SHT30;60269;52.502;16.732;2024-02-23T01:35:37;9.49;90.79
72320;SHT30;60269;52.502;16.732;2024-02-23T01:39:09;9.51;90.85
72320;SHT30;60269;52.502;16.732;2024-02-23T01:42:43;9.51;90.85
72320;SHT30;60269;52.502;16.732;2024-02-23T01:46:15;9.55;90.72
72320;SHT30;60269;52.502;16.732;2024-02-23T01:49:51;9.61;90.55
72320;SHT30;60269;52.502;16.732;2024-02-23T01:53:27;9.58;90.96
72320;SHT30;60269;52.502;16.732;2024-02-23T01:57:00;9.56;91.00
72320;SHT30;60269;52.502;16.732;2024-02-23T02:00:52;9.69;90.34
72320;SHT30;60269;52.502;16.732;2024-02-23T02:04:24;9.66;90.48
72320;SHT30;60269;52.502;16.732;2024-02-23T02:07:56;9.61;90.66
72320;SHT30;60269;52.502;16.732;2024-02-23T02:11:31;9.68;90.42
72320;SHT30;60269;52.502;16.732;2024-02-23T02:15:04;9.66;90.64
72320;SHT30;60269;52.502;16.732;2024-02-23T02:18:35;9.58;91.10
72320;SHT30;60269;52.502;16.732;2024-02-23T02:22:07;9.76;90.06
72320;SHT30;60269;52.502;16.732;2024-02-23T02:25:39;9.69;90.39
72320;SHT30;60269;52.502;16.732;2024-02-23T02:29:13;9.76;90.07
72320;SHT30;60269;52.502;16.732;2024-02-23T02:32:45;9.72;90.44
72320;SHT30;60269;52.502;16.732;2024-02-23T02:36:18;9.82;89.83
72320;SHT30;60269;52.502;16.732;2024-02-23T02:39:49;9.85;89.71
72320;SHT30;60269;52.502;16.732;2024-02-23T02:43:22;9.69;90.20
72320;SHT30;60269;52.502;16.732;2024-02-23T02:46:54;9.68;90.12
72320;SHT30;60269;52.502;16.732;2024-02-23T02:50:26;9.71;90.11
72320;SHT30;60269;52.502;16.732;2024-02-23T02:53:58;9.56;90.51
72320;SHT30;60269;52.502;16.732;2024-02-23T02:57:30;9.68;90.16
72320;SHT30;60269;52.502;16.732;2024-02-23T03:01:02;9.47;90.96
72320;SHT30;60269;52.502;16.732;2024-02-23T03:04:35;9.41;91.14
72320;SHT30;60269;52.502;16.732;2024-02-23T03:08:06;9.30;91.44
72320;SHT30;60269;52.502;16.732;2024-02-23T03:11:38;9.38;91.29
72320;SHT30;60269;52.502;16.732;2024-02-23T03:15:11;9.61;90.32
72320;SHT30;60269;52.502;16.732;2024-02-23T03:18:43;9.63;90.28
72320;SHT30;60269;52.502;16.732;2024-02-23T03:22:15;9.71;90.04
72320;SHT30;60269;52.502;16.732;2024-02-23T03:25:47;9.71;90.16
72320;SHT30;60269;52.502;16.732;2024-02-23T03:29:19;9.83;89.51
72320;SHT30;60269;52.502;16.732;2024-02-23T03:32:51;9.87;89.47
72320;SHT30;60269;52.502;16.732;2024-02-23T03:36:23;9.79;90.01
72320;SHT30;60269;52.502;16.732;2024-02-23T03:39:55;9.76;90.14
72320;SHT30;60269;52.502;16.732;2024-02-23T03:43:27;9.83;89.67
72320;SHT30;60269;52.502;16.732;2024-02-23T03:47:02;9.79;89.99
72320;SHT30;60269;52.502;16.732;2024-02-23T03:50:34;9.71;90.32
72320;SHT30;60269;52.502;16.732;2024-02-23T03:54:06;9.76;89.98
72320;SHT30;60269;52.502;16.732;2024-02-23T03:57:38;9.87;89.70
72320;SHT30;60269;52.502;16.732;2024-02-23T04:01:10;9.93;89.36
72320;SHT30;60269;52.502;16.732;2024-02-23T04:04:42;9.85;89.76
72320;SHT30;60269;52.502;16.732;2024-02-23T04:08:14;10.02;89.04
72320;SHT30;60269;52.502;16.732;2024-02-23T04:11:49;10.16;88.53
72320;SHT30;60269;52.502;16.732;2024-02-23T04:15:22;10.25;88.25
72320;SHT30;60269;52.502;16.732;2024-02-23T04:18:54;10.13;88.87
72320;SHT30;60269;52.502;16.732;2024-02-23T04:22:28;10.23;88.28
72320;SHT30;60269;52.502;16.732;2024-02-23T04:26:00;10.16;88.72
72320;SHT30;60269;52.502;16.732;2024-02-23T04:29:32;10.25;88.25
72320;SHT30;60269;52.502;16.732;2024-02-23T04:33:04;10.17;88.80
72320;SHT30;60269;52.502;16.732;2024-02-23T04:36:36;10.18;88.64
72320;SHT30;60269;52.502;16.732;2024-02-23T04:40:08;10.17;88.88
72320;SHT30;60269;52.502;16.732;2024-02-23T04:43:40;10.21;88.65
72320;SHT30;60269;52.502;16.732;2024-02-23T04:47:12;10.14;88.97
72320;SHT30;60269;52.502;16.732;2024-02-23T04:50:44;10.12;89.02
72320;SHT30;60269;52.502;16.732;2024-02-23T04:54:16;10.09;89.11
72320;SHT30;60269;52.502;16.732;2024-02-23T04:57:48;10.00;89.67
72320;SHT30;60269;52.502;16.732;2024-02-23T05:01:20;10.05;89.53
72320;SHT30;60269;52.502;16.732;2024-02-23T05:04:52;10.00;89.57
72320;SHT30;60269;52.502;16.732;2024-02-23T05:08:24;9.97;89.81
72320;SHT30;60269;52.502;16.732;2024-02-23T05:11:56;10.06;89.46
72320;SHT30;60269;52.502;16.732;2024-02-23T05:15:28;10.02;89.72
72320;SHT30;60269;52.502;16.732;2024-02-23T05:19:01;10.06;89.62
72320;SHT30;60269;52.502;16.732;2024-02-23T05:22:33;10.05;89.56
72320;SHT30;60269;52.502;16.732;2024-02-23T05:26:04;10.05;89.66
72320;SHT30;60269;52.502;16.732;2024-02-23T05:29:39;10.06;89.53
72320;SHT30;60269;52.502;16.732;2024-02-23T05:33:11;9.97;90.06
72320;SHT30;60269;52.502;16.732;2024-02-23T05:36:43;10.06;89.35
72320;SHT30;60269;52.502;16.732;2024-02-23T05:40:15;9.99;89.93
72320;SHT30;60269;52.502;16.732;2024-02-23T05:43:47;10.07;89.17
72320;SHT30;60269;52.502;16.732;2024-02-23T05:47:19;10.13;89.09
72320;SHT30;60269;52.502;16.732;2024-02-23T05:50:53;10.16;88.72
72320;SHT30;60269;52.502;16.732;2024-02-23T05:54:25;10.21;87.95
72320;SHT30;60269;52.502;16.732;2024-02-23T05:57:57;10.18;88.13
72320;SHT30;60269;52.502;16.732;2024-02-23T06:01:29;10.20;88.24
72320;SHT30;60269;52.502;16.732;2024-02-23T06:05:01;10.16;88.38
72320;SHT30;60269;52.502;16.732;2024-02-23T06:08:35;10.07;88.66
72320;SHT30;60269;52.502;16.732;2024-02-23T06:12:08;10.02;88.90
72320;SHT30;60269;52.502;16.732;2024-02-23T06:15:40;10.03;88.92
72320;SHT30;60269;52.502;16.732;2024-02-23T06:19:14;10.05;88.75
72320;SHT30;60269;52.502;16.732;2024-02-23T06:22:46;10.09;88.64
72320;SHT30;60269;52.502;16.732;2024-02-23T06:26:18;10.02;89.03
72320;SHT30;60269;52.502;16.732;2024-02-23T06:29:50;9.93;89.76
72320;SHT30;60269;52.502;16.732;2024-02-23T06:33:22;9.79;90.12
72320;SHT30;60269;52.502;16.732;2024-02-23T06:36:54;9.69;90.32
72320;SHT30;60269;52.502;16.732;2024-02-23T06:40:26;9.74;90.16
72320;SHT30;60269;52.502;16.732;2024-02-23T06:44:12;9.79;89.20
72320;SHT30;60269;52.502;16.732;2024-02-23T06:47:44;9.74;89.17
72320;SHT30;60269;52.502;16.732;2024-02-23T06:51:16;9.74;87.93
72320;SHT30;60269;52.502;16.732;2024-02-23T06:54:48;9.89;84.92
72320;SHT30;60269;52.502;16.732;2024-02-23T06:58:20;10.03;81.72
72320;SHT30;60269;52.502;16.732;2024-02-23T07:01:53;10.20;79.32
72320;SHT30;60269;52.502;16.732;2024-02-23T07:05:26;10.21;78.35
72320;SHT30;60269;52.502;16.732;2024-02-23T07:08:58;10.24;77.55
72320;SHT30;60269;52.502;16.732;2024-02-23T07:12:30;10.18;77.73
72320;SHT30;60269;52.502;16.732;2024-02-23T07:16:02;10.14;78.35
72320;SHT30;60269;52.502;16.732;2024-02-23T07:19:34;10.13;78.84
72320;SHT30;60269;52.502;16.732;2024-02-23T07:23:06;10.00;80.06
72320;SHT30;60269;52.502;16.732;2024-02-23T07:26:39;9.92;79.39
72320;SHT30;60269;52.502;16.732;2024-02-23T07:30:12;9.92;77.29
72320;SHT30;60269;52.502;16.732;2024-02-23T07:33:44;10.07;73.28
72320;SHT30;60269;52.502;16.732;2024-02-23T07:37:16;10.06;71.22
72320;SHT30;60269;52.502;16.732;2024-02-23T07:40:48;9.99;71.69
72320;SHT30;60269;52.502;16.732;2024-02-23T07:44:20;9.86;71.78
72320;SHT30;60269;52.502;16.732;2024-02-23T07:47:52;9.79;72.69
72320;SHT30;60269;52.502;16.732;2024-02-23T07:51:24;9.82;71.26
72320;SHT30;60269;52.502;16.732;2024-02-23T07:54:56;9.81;71.53
72320;SHT30;60269;52.502;16.732;2024-02-23T07:58:28;9.79;71.35
72320;SHT30;60269;52.502;16.732;2024-02-23T08:02:00;9.74;70.94
72320;SHT30;60269;52.502;16.732;2024-02-23T08:05:32;9.75;70.03
72320;SHT30;60269;52.502;16.732;2024-02-23T08:09:04;9.75;69.20
72320;SHT30;60269;52.502;16.732;2024-02-23T08:12:36;9.72;69.05
72320;SHT30;60269;52.502;16.732;2024-02-23T08:16:15;9.74;67.78
72320;SHT30;60269;52.502;16.732;2024-02-23T08:19:48;9.61;68.66
72320;SHT30;60269;52.502;16.732;2024-02-23T08:23:20;9.56;67.02
72320;SHT30;60269;52.502;16.732;2024-02-23T08:26:52;9.58;66.92
72320;SHT30;60269;52.502;16.732;2024-02-23T08:30:24;9.56;66.96
72320;SHT30;60269;52.502;16.732;2024-02-23T08:33:56;9.51;67.83
72320;SHT30;60269;52.502;16.732;2024-02-23T08:37:28;9.49;68.28
72320;SHT30;60269;52.502;16.732;2024-02-23T08:41:00;9.51;68.53
72320;SHT30;60269;52.502;16.732;2024-02-23T08:44:32;9.47;69.30
72320;SHT30;60269;52.502;16.732;2024-02-23T08:48:04;9.48;69.96
72320;SHT30;60269;52.502;16.732;2024-02-23T08:51:37;9.51;69.36
72320;SHT30;60269;52.502;16.732;2024-02-23T08:55:08;9.61;67.72
72320;SHT30;60269;52.502;16.732;2024-02-23T08:58:41;9.65;68.40
72320;SHT30;60269;52.502;16.732;2024-02-23T09:02:13;9.68;68.35
72320;SHT30;60269;52.502;16.732;2024-02-23T09:05:45;9.55;68.09
72320;SHT30;60269;52.502;16.732;2024-02-23T09:09:19;9.49;67.99
72320;SHT30;60269;52.502;16.732;2024-02-23T09:12:51;9.47;68.35
72320;SHT30;60269;52.502;16.732;2024-02-23T09:16:24;9.55;68.23
72320;SHT30;60269;52.502;16.732;2024-02-23T09:19:57;9.68;68.59
72320;SHT30;60269;52.502;16.732;2024-02-23T09:23:29;9.65;68.86
72320;SHT30;60269;52.502;16.732;2024-02-23T09:27:01;9.68;66.92
72320;SHT30;60269;52.502;16.732;2024-02-23T09:30:35;9.86;67.86
72320;SHT30;60269;52.502;16.732;2024-02-23T09:34:07;9.86;67.94
72320;SHT30;60269;52.502;16.732;2024-02-23T09:37:39;9.87;67.21
72320;SHT30;60269;52.502;16.732;2024-02-23T09:41:30;9.78;68.16
72320;SHT30;60269;52.502;16.732;2024-02-23T09:45:21;9.90;67.92
72320;SHT30;60269;52.502;16.732;2024-02-23T09:48:54;10.05;67.92
72320;SHT30;60269;52.502;16.732;2024-02-23T09:52:28;10.21;66.88
72320;SHT30;60269;52.502;16.732;2024-02-23T09:56:01;10.43;66.81
72320;SHT30;60269;52.502;16.732;2024-02-23T09:59:35;10.38;65.03
72320;SHT30;60269;52.502;16.732;2024-02-23T10:03:07;10.38;65.05
72320;SHT30;60269;52.502;16.732;2024-02-23T10:06:39;10.51;64.99
72320;SHT30;60269;52.502;16.732;2024-02-23T10:10:13;10.75;64.96
72320;SHT30;60269;52.502;16.732;2024-02-23T10:13:47;11.12;65.24
72320;SHT30;60269;52.502;16.732;2024-02-23T10:17:21;11.59;63.10
72320;SHT30;60269;52.502;16.732;2024-02-23T10:20:53;11.68;61.69
72320;SHT30;60269;52.502;16.732;2024-02-23T10:24:26;11.41;62.87
72320;SHT30;60269;52.502;16.732;2024-02-23T10:27:58;11.33;62.84
72320;SHT30;60269;52.502;16.732;2024-02-23T10:31:34;10.98;63.92
72320;SHT30;60269;52.502;16.732;2024-02-23T10:35:14;10.96;63.70
72320;SHT30;60269;52.502;16.732;2024-02-23T10:38:46;11.13;64.41
72320;SHT30;60269;52.502;16.732;2024-02-23T10:42:21;11.15;66.13
72320;SHT30;60269;52.502;16.732;2024-02-23T10:46:01;10.81;66.38
72320;SHT30;60269;52.502;16.732;2024-02-23T10:49:36;10.86;67.58
72320;SHT30;60269;52.502;16.732;2024-02-23T10:53:09;10.79;67.70
72320;SHT30;60269;52.502;16.732;2024-02-23T10:56:42;10.68;66.81
72320;SHT30;60269;52.502;16.732;2024-02-23T11:00:14;10.50;68.15
72320;SHT30;60269;52.502;16.732;2024-02-23T11:03:48;10.51;67.91
72320;SHT30;60269;52.502;16.732;2024-02-23T11:07:23;10.43;68.18
72320;SHT30;60269;52.502;16.732;2024-02-23T11:10:57;10.48;67.73
72320;SHT30;60269;52.502;16.732;2024-02-23T11:14:39;10.47;67.54
72320;SHT30;60269;52.502;16.732;2024-02-23T11:18:27;10.55;66.30
72320;SHT30;60269;52.502;16.732;2024-02-23T11:21:59;10.65;65.82
72320;SHT30;60269;52.502;16.732;2024-02-23T11:25:32;10.40;66.25
72320;SHT30;60269;52.502;16.732;2024-02-23T11:29:10;10.21;66.90
72320;SHT30;60269;52.502;16.732;2024-02-23T11:32:47;10.02;66.72
72320;SHT30;60269;52.502;16.732;2024-02-23T11:36:32;9.95;67.11
72320;SHT30;60269;52.502;16.732;2024-02-23T11:40:05;9.87;66.94
72320;SHT30;60269;52.502;16.732;2024-02-23T11:43:38;9.75;67.22
72320;SHT30;60269;52.502;16.732;2024-02-23T11:47:11;9.71;67.52
72320;SHT30;60269;52.502;16.732;2024-02-23T11:50:43;9.61;67.71
72320;SHT30;60269;52.502;16.732;2024-02-23T11:54:15;9.55;67.80
72320;SHT30;60269;52.502;16.732;2024-02-23T11:57:48;9.52;68.80
72320;SHT30;60269;52.502;16.732;2024-02-23T12:01:23;9.48;69.99
72320;SHT30;60269;52.502;16.732;2024-02-23T12:04:55;9.47;71.19
72320;SHT30;60269;52.502;16.732;2024-02-23T12:08:30;9.47;70.08
72320;SHT30;60269;52.502;16.732;2024-02-23T12:12:09;9.44;69.51
72320;SHT30;60269;52.502;16.732;2024-02-23T12:15:42;9.54;70.55
72320;SHT30;60269;52.502;16.732;2024-02-23T12:19:15;9.66;69.87
72320;SHT30;60269;52.502;16.732;2024-02-23T12:22:47;9.69;69.00
72320;SHT30;60269;52.502;16.732;2024-02-23T12:26:19;9.85;69.52
72320;SHT30;60269;52.502;16.732;2024-02-23T12:29:54;9.89;68.04
72320;SHT30;60269;52.502;16.732;2024-02-23T12:33:27;9.99;67.28
72320;SHT30;60269;52.502;16.732;2024-02-23T12:37:02;10.10;68.42
72320;SHT30;60269;52.502;16.732;2024-02-23T12:40:35;10.23;67.17
72320;SHT30;60269;52.502;16.732;2024-02-23T12:44:07;10.81;65.77
72320;SHT30;60269;52.502;16.732;2024-02-23T12:47:39;11.23;62.48
72320;SHT30;60269;52.502;16.732;2024-02-23T12:51:12;11.77;62.80
72320;SHT30;60269;52.502;16.732;2024-02-23T12:54:44;11.91;59.79
72320;SHT30;60269;52.502;16.732;2024-02-23T12:58:17;12.06;59.80
72320;SHT30;60269;52.502;16.732;2024-02-23T13:01:49;11.88;60.63
72320;SHT30;60269;52.502;16.732;2024-02-23T13:05:24;11.13;61.99
72320;SHT30;60269;52.502;16.732;2024-02-23T13:08:56;10.96;62.26
72320;SHT30;60269;52.502;16.732;2024-02-23T13:12:28;11.08;61.80
72320;SHT30;60269;52.502;16.732;2024-02-23T13:16:00;11.75;61.32
72320;SHT30;60269;52.502;16.732;2024-02-23T13:19:32;11.50;63.39
72320;SHT30;60269;52.502;16.732;2024-02-23T13:23:08;11.70;62.31
72320;SHT30;60269;52.502;16.732;2024-02-23T13:26:41;11.53;61.59
72320;SHT30;60269;52.502;16.732;2024-02-23T13:30:14;11.15;64.23
72320;SHT30;60269;52.502;16.732;2024-02-23T13:33:46;10.81;64.70
72320;SHT30;60269;52.502;16.732;2024-02-23T13:37:18;10.62;65.22
72320;SHT30;60269;52.502;16.732;2024-02-23T13:40:50;10.53;65.70
72320;SHT30;60269;52.502;16.732;2024-02-23T13:44:24;10.36;66.74
72320;SHT30;60269;52.502;16.732;2024-02-23T13:47:58;10.23;65.85
72320;SHT30;60269;52.502;16.732;2024-02-23T13:51:32;10.17;66.33
72320;SHT30;60269;52.502;16.732;2024-02-23T13:55:04;10.06;65.87
72320;SHT30;60269;52.502;16.732;2024-02-23T13:58:36;9.99;69.45
72320;SHT30;60269;52.502;16.732;2024-02-23T14:02:09;9.99;68.22
72320;SHT30;60269;52.502;16.732;2024-02-23T14:05:41;9.90;69.50
72320;SHT30;60269;52.502;16.732;2024-02-23T14:09:16;9.79;68.55
72320;SHT30;60269;52.502;16.732;2024-02-23T14:12:48;9.78;69.75
72320;SHT30;60269;52.502;16.732;2024-02-23T14:16:22;9.74;69.15
72320;SHT30;60269;52.502;16.732;2024-02-23T14:19:55;9.66;69.47
72320;SHT30;60269;52.502;16.732;2024-02-23T14:23:28;9.62;71.25
72320;SHT30;60269;52.502;16.732;2024-02-23T14:27:00;9.58;70.73
72320;SHT30;60269;52.502;16.732;2024-02-23T14:30:32;9.54;71.39
72320;SHT30;60269;52.502;16.732;2024-02-23T14:34:04;9.55;69.70
72320;SHT30;60269;52.502;16.732;2024-02-23T14:37:36;9.48;69.37
72320;SHT30;60269;52.502;16.732;2024-02-23T14:41:08;9.37;71.12
72320;SHT30;60269;52.502;16.732;2024-02-23T14:44:41;9.32;71.20
72320;SHT30;60269;52.502;16.732;2024-02-23T14:48:13;9.26;71.45
72320;SHT30;60269;52.502;16.732;2024-02-23T14:51:45;9.18;72.50
72320;SHT30;60269;52.502;16.732;2024-02-23T14:55:20;9.20;72.22
72320;SHT30;60269;52.502;16.732;2024-02-23T14:58:52;9.14;73.17
72320;SHT30;60269;52.502;16.732;2024-02-23T15:02:24;9.08;73.48
72320;SHT30;60269;52.502;16.732;2024-02-23T15:05:56;9.00;74.37
72320;SHT30;60269;52.502;16.732;2024-02-23T15:09:28;8.94;74.76
72320;SHT30;60269;52.502;16.732;2024-02-23T15:13:00;8.83;75.09
72320;SHT30;60269;52.502;16.732;2024-02-23T15:16:32;8.79;75.45
72320;SHT30;60269;52.502;16.732;2024-02-23T15:20:04;8.75;76.29
72320;SHT30;60269;52.502;16.732;2024-02-23T15:23:37;8.69;75.70
72320;SHT30;60269;52.502;16.732;2024-02-23T15:27:09;8.72;75.60
72320;SHT30;60269;52.502;16.732;2024-02-23T15:30:41;8.75;76.02
72320;SHT30;60269;52.502;16.732;2024-02-23T15:34:13;8.81;75.20
72320;SHT30;60269;52.502;16.732;2024-02-23T15:37:46;8.89;74.54
72320;SHT30;60269;52.502;16.732;2024-02-23T15:41:18;8.79;76.28
72320;SHT30;60269;52.502;16.732;2024-02-23T15:44:50;8.76;76.54
72320;SHT30;60269;52.502;16.732;2024-02-23T15:48:22;8.73;77.66
72320;SHT30;60269;52.502;16.732;2024-02-23T15:51:55;8.72;77.09
72320;SHT30;60269;52.502;16.732;2024-02-23T15:55:32;8.72;75.84
72320;SHT30;60269;52.502;16.732;2024-02-23T15:59:05;8.60;76.72
72320;SHT30;60269;52.502;16.732;2024-02-23T16:02:40;8.38;78.02
72320;SHT30;60269;52.502;16.732;2024-02-23T16:06:13;8.37;77.20
72320;SHT30;60269;52.502;16.732;2024-02-23T16:09:45;8.15;78.55
72320;SHT30;60269;52.502;16.732;2024-02-23T16:13:17;7.95;79.40
72320;SHT30;60269;52.502;16.732;2024-02-23T16:16:50;7.89;80.07
72320;SHT30;60269;52.502;16.732;2024-02-23T16:20:23;7.74;80.04
72320;SHT30;60269;52.502;16.732;2024-02-23T16:23:55;7.67;80.38
72320;SHT30;60269;52.502;16.732;2024-02-23T16:27:27;7.50;80.82
72320;SHT30;60269;52.502;16.732;2024-02-23T16:30:59;7.31;82.73
72320;SHT30;60269;52.502;16.732;2024-02-23T16:34:31;7.08;83.69
72320;SHT30;60269;52.502;16.732;2024-02-23T16:38:05;6.73;85.21
72320;SHT30;60269;52.502;16.732;2024-02-23T16:41:38;6.58;85.87
72320;SHT30;60269;52.502;16.732;2024-02-23T16:45:10;6.46;86.45
72320;SHT30;60269;52.502;16.732;2024-02-23T16:48:43;6.43;86.13
72320;SHT30;60269;52.502;16.732;2024-02-23T16:52:15;6.43;85.69
72320;SHT30;60269;52.502;16.732;2024-02-23T16:55:47;6.37;85.72
72320;SHT30;60269;52.502;16.732;2024-02-23T16:59:19;6.39;85.89
72320;SHT30;60269;52.502;16.732;2024-02-23T17:02:51;6.40;85.62
72320;SHT30;60269;52.502;16.732;2024-02-23T17:06:23;6.47;85.43
72320;SHT30;60269;52.502;16.732;2024-02-23T17:09:57;6.52;84.70
72320;SHT30;60269;52.502;16.732;2024-02-23T17:13:29;6.62;85.02
72320;SHT30;60269;52.502;16.732;2024-02-23T17:17:01;6.64;84.93
72320;SHT30;60269;52.502;16.732;2024-02-23T17:20:36;6.58;85.70
72320;SHT30;60269;52.502;16.732;2024-02-23T17:24:08;6.64;85.01
72320;SHT30;60269;52.502;16.732;2024-02-23T17:27:40;6.73;84.15
72320;SHT30;60269;52.502;16.732;2024-02-23T17:31:13;6.72;84.16
72320;SHT30;60269;52.502;16.732;2024-02-23T17:34:45;6.63;84.61
72320;SHT30;60269;52.502;16.732;2024-02-23T17:38:17;6.49;85.23
72320;SHT30;60269;52.502;16.732;2024-02-23T17:41:49;6.42;85.58
72320;SHT30;60269;52.502;16.732;2024-02-23T17:45:24;6.36;85.77
72320;SHT30;60269;52.502;16.732;2024-02-23T17:48:56;6.33;85.76
72320;SHT30;60269;52.502;16.732;2024-02-23T17:52:28;6.44;85.42
72320;SHT30;60269;52.502;16.732;2024-02-23T17:56:00;6.52;85.19
72320;SHT30;60269;52.502;16.732;2024-02-23T17:59:33;6.62;84.72
72320;SHT30;60269;52.502;16.732;2024-02-23T18:03:05;6.70;84.33
72320;SHT30;60269;52.502;16.732;2024-02-23T18:06:38;6.74;84.29
72320;SHT30;60269;52.502;16.732;2024-02-23T18:10:10;6.72;84.36
72320;SHT30;60269;52.502;16.732;2024-02-23T18:13:42;6.70;84.32
72320;SHT30;60269;52.502;16.732;2024-02-23T18:17:14;6.69;84.04
72320;SHT30;60269;52.502;16.732;2024-02-23T18:20:46;6.73;83.80
72320;SHT30;60269;52.502;16.732;2024-02-23T18:24:18;6.67;84.11
72320;SHT30;60269;52.502;16.732;2024-02-23T18:27:50;6.66;84.37
72320;SHT30;60269;52.502;16.732;2024-02-23T18:31:22;6.57;85.00
72320;SHT30;60269;52.502;16.732;2024-02-23T18:34:55;6.50;85.18
72320;SHT30;60269;52.502;16.732;2024-02-23T18:38:27;6.46;85.90
72320;SHT30;60269;52.502;16.732;2024-02-23T18:41:59;6.44;86.15
72320;SHT30;60269;52.502;16.732;2024-02-23T18:45:32;6.54;85.91
72320;SHT30;60269;52.502;16.732;2024-02-23T18:49:06;6.57;86.21
72320;SHT30;60269;52.502;16.732;2024-02-23T18:52:38;6.53;86.04
72320;SHT30;60269;52.502;16.732;2024-02-23T18:56:10;6.64;84.97
72320;SHT30;60269;52.502;16.732;2024-02-23T18:59:42;6.76;84.21
72320;SHT30;60269;52.502;16.732;2024-02-23T19:03:14;6.79;84.01
72320;SHT30;60269;52.502;16.732;2024-02-23T19:06:47;6.76;83.79
72320;SHT30;60269;52.502;16.732;2024-02-23T19:10:19;6.76;83.74
72320;SHT30;60269;52.502;16.732;2024-02-23T19:13:50;6.73;83.67
72320;SHT30;60269;52.502;16.732;2024-02-23T19:17:22;6.83;83.06
72320;SHT30;60269;52.502;16.732;2024-02-23T19:20:54;6.79;83.73
72320;SHT30;60269;52.502;16.732;2024-02-23T19:24:27;6.80;83.42
72320;SHT30;60269;52.502;16.732;2024-02-23T19:28:02;6.91;82.97
72320;SHT30;60269;52.502;16.732;2024-02-23T19:31:34;7.00;82.45
72320;SHT30;60269;52.502;16.732;2024-02-23T19:35:06;6.97;82.81
72320;SHT30;60269;52.502;16.732;2024-02-23T19:38:38;6.95;82.84
72320;SHT30;60269;52.502;16.732;2024-02-23T19:42:10;6.95;82.60
72320;SHT30;60269;52.502;16.732;2024-02-23T19:45:43;6.84;83.38
72320;SHT30;60269;52.502;16.732;2024-02-23T19:49:15;6.95;82.88
72320;SHT30;60269;52.502;16.732;2024-02-23T19:52:49;7.00;82.99
72320;SHT30;60269;52.502;16.732;2024-02-23T19:56:21;7.09;82.86
72320;SHT30;60269;52.502;16.732;2024-02-23T19:59:53;7.02;83.47
72320;SHT30;60269;52.502;16.732;2024-02-23T20:03:25;6.95;83.82
72320;SHT30;60269;52.502;16.732;2024-02-23T20:06:57;7.00;83.53
72320;SHT30;60269;52.502;16.732;2024-02-23T20:10:29;6.94;84.03
72320;SHT30;60269;52.502;16.732;2024-02-23T20:14:01;6.94;84.43
72320;SHT30;60269;52.502;16.732;2024-02-23T20:17:33;6.90;84.64
72320;SHT30;60269;52.502;16.732;2024-02-23T20:21:08;6.93;84.38
72320;SHT30;60269;52.502;16.732;2024-02-23T20:24:40;6.88;84.66
72320;SHT30;60269;52.502;16.732;2024-02-23T20:28:14;6.83;84.69
72320;SHT30;60269;52.502;16.732;2024-02-23T20:31:46;6.83;85.22
72320;SHT30;60269;52.502;16.732;2024-02-23T20:35:19;6.81;85.05
72320;SHT30;60269;52.502;16.732;2024-02-23T20:38:51;6.81;84.87
72320;SHT30;60269;52.502;16.732;2024-02-23T20:42:23;6.83;84.72
72320;SHT30;60269;52.502;16.732;2024-02-23T20:45:55;6.85;84.87
72320;SHT30;60269;52.502;16.732;2024-02-23T20:49:28;6.83;85.01
72320;SHT30;60269;52.502;16.732;2024-02-23T20:53:04;6.80;85.19
72320;SHT30;60269;52.502;16.732;2024-02-23T20:56:36;6.84;85.14
72320;SHT30;60269;52.502;16.732;2024-02-23T21:00:08;6.83;85.48
72320;SHT30;60269;52.502;16.732;2024-02-23T21:03:41;6.87;85.53
72320;SHT30;60269;52.502;16.732;2024-02-23T21:07:13;6.85;85.16
72320;SHT30;60269;52.502;16.732;2024-02-23T21:10:47;6.90;85.00
72320;SHT30;60269;52.502;16.732;2024-02-23T21:14:19;6.88;85.26
72320;SHT30;60269;52.502;16.732;2024-02-23T21:17:51;6.88;85.49
72320;SHT30;60269;52.502;16.732;2024-02-23T21:21:23;6.87;85.63
72320;SHT30;60269;52.502;16.732;2024-02-23T21:24:55;6.88;85.80
72320;SHT30;60269;52.502;16.732;2024-02-23T21:28:27;6.90;85.72
72320;SHT30;60269;52.502;16.732;2024-02-23T21:32:00;6.81;86.44
72320;SHT30;60269;52.502;16.732;2024-02-23T21:35:32;6.77;87.18
72320;SHT30;60269;52.502;16.732;2024-02-23T21:39:07;6.76;86.84
72320;SHT30;60269;52.502;16.732;2024-02-23T21:42:40;6.83;86.85
72320;SHT30;60269;52.502;16.732;2024-02-23T21:46:12;6.87;87.56
72320;SHT30;60269;52.502;16.732;2024-02-23T21:49:44;6.84;88.05
72320;SHT30;60269;52.502;16.732;2024-02-23T21:53:16;6.76;88.83
72320;SHT30;60269;52.502;16.732;2024-02-23T21:56:48;6.63;89.89
72320;SHT30;60269;52.502;16.732;2024-02-23T22:00:20;6.64;89.88
72320;SHT30;60269;52.502;16.732;2024-02-23T22:03:53;6.52;90.87
72320;SHT30;60269;52.502;16.732;2024-02-23T22:07:26;6.46;91.32
72320;SHT30;60269;52.502;16.732;2024-02-23T22:10:58;6.49;91.79
72320;SHT30;60269;52.502;16.732;2024-02-23T22:14:30;6.36;92.40
72320;SHT30;60269;52.502;16.732;2024-02-23T22:18:02;6.28;93.62
72320;SHT30;60269;52.502;16.732;2024-02-23T22:21:35;6.19;94.08